createdAt,value
2022-12-24T00:02:50.557Z,99585.50
2022-12-24T00:07:52.035Z,99576.16
2022-12-24T00:12:53.378Z,99589.00
2022-12-24T00:17:54.714Z,99584.47
2022-12-24T00:22:56.059Z,99579.06
2022-12-24T00:27:57.411Z,99605.78
2022-12-24T00:32:58.764Z,99590.47
2022-12-24T00:38:00.131Z,99610.38
2022-12-24T00:43:01.444Z,99603.13
2022-12-24T00:48:02.834Z,99624.88
2022-12-24T00:53:04.183Z,99615.75
2022-12-24T00:58:05.556Z,99634.63
2022-12-24T01:03:06.957Z,99642.72
2022-12-24T01:08:08.620Z,99635.66
2022-12-24T01:13:09.950Z,99648.31
2022-12-24T01:18:11.321Z,99657.03
2022-12-24T01:23:12.757Z,99670.31
2022-12-24T01:28:14.113Z,99691.88
2022-12-24T01:33:15.443Z,99700.19
2022-12-24T01:38:16.756Z,99702.47
2022-12-24T01:43:23.295Z,99712.81
2022-12-24T01:48:31.373Z,99718.00
2022-12-24T01:53:35.027Z,99724.84
2022-12-24T01:58:37.821Z,99739.38
2022-12-24T02:03:39.775Z,99751.63
2022-12-24T02:08:41.215Z,99753.69
2022-12-24T02:13:47.872Z,99754.13
2022-12-24T02:19:14.039Z,99762.41
2022-12-24T02:24:51.733Z,99770.50
2022-12-24T02:29:55.811Z,99769.88
2022-12-24T02:35:14.385Z,99764.09
2022-12-24T02:40:25.396Z,99762.59
2022-12-24T02:45:31.000Z,99786.25
2022-12-24T02:50:32.369Z,99781.66
2022-12-24T02:55:44.623Z,99788.31
2022-12-24T03:01:30.872Z,99805.72
2022-12-24T03:06:47.523Z,99802.41
2022-12-24T03:12:00.848Z,99816.72
2022-12-24T03:17:03.544Z,99822.09
2022-12-24T03:22:09.095Z,99811.72
2022-12-24T03:27:13.143Z,99822.28
2022-12-24T03:32:14.459Z,99830.16
2022-12-24T03:37:15.766Z,99833.06
2022-12-24T03:42:17.121Z,99837.41
2022-12-24T03:47:18.442Z,99842.59
2022-12-24T03:52:19.760Z,99836.38
2022-12-24T03:57:21.137Z,99856.91
2022-12-24T04:02:22.580Z,99866.25
2022-12-24T04:07:24.030Z,99857.97
2022-12-24T04:12:25.517Z,99875.97
2022-12-24T04:17:26.866Z,99865.78
2022-12-24T04:22:28.260Z,99880.97
2022-12-24T04:27:31.110Z,99893.56
2022-12-24T04:32:32.457Z,99897.50
2022-12-24T04:37:34.170Z,99898.38
2022-12-24T04:42:35.557Z,99901.47
2022-12-24T04:47:36.934Z,99897.94
2022-12-24T04:52:38.257Z,99897.53
2022-12-24T04:57:39.587Z,99903.78
2022-12-24T05:02:41.160Z,99907.31
2022-12-24T05:07:42.569Z,99909.16
2022-12-24T05:12:43.923Z,99902.91
2022-12-24T05:17:45.248Z,99908.16
2022-12-24T05:23:05.024Z,99910.31
2022-12-24T05:28:06.344Z,99917.91
2022-12-24T05:33:07.656Z,99909.38
2022-12-24T05:38:09.027Z,99919.28
2022-12-24T05:43:10.361Z,99908.88
2022-12-24T05:48:11.762Z,99921.50
2022-12-24T05:53:13.092Z,99914.72
2022-12-24T05:58:14.594Z,99920.53
2022-12-24T06:03:15.945Z,99919.31
2022-12-24T06:08:17.272Z,99938.34
2022-12-24T06:13:18.647Z,99948.44
2022-12-24T06:18:19.975Z,99953.88
2022-12-24T06:23:21.592Z,99958.44
2022-12-24T06:28:22.977Z,99957.41
2022-12-24T06:33:24.471Z,99970.09
2022-12-24T06:38:25.981Z,99973.19
2022-12-24T06:43:27.312Z,99975.84
2022-12-24T06:48:28.776Z,99991.69
2022-12-24T06:53:31.396Z,99996.00
2022-12-24T06:58:34.105Z,99994.72
2022-12-24T07:08:52.004Z,99997.91
2022-12-24T07:13:53.458Z,100004.78
2022-12-24T07:18:54.800Z,100015.63
2022-12-24T07:23:56.128Z,100015.50
2022-12-24T07:28:57.922Z,100016.53
2022-12-24T07:33:59.400Z,100034.28
2022-12-24T07:39:00.715Z,100047.56
2022-12-24T07:44:02.036Z,100048.25
2022-12-24T07:49:03.402Z,100060.50
2022-12-24T07:54:05.104Z,100057.25
2022-12-24T07:59:06.506Z,100065.50
2022-12-24T08:04:07.940Z,100071.91
2022-12-24T08:09:09.380Z,100097.56
2022-12-24T08:14:10.731Z,100101.09
2022-12-24T08:19:12.051Z,100091.22
2022-12-24T08:24:13.406Z,100101.81
2022-12-24T08:29:14.755Z,100088.06
2022-12-24T08:34:16.083Z,100091.84
2022-12-24T08:39:17.409Z,100099.44
2022-12-24T08:44:18.816Z,100110.91
2022-12-24T08:49:20.147Z,100116.31
2022-12-24T08:54:22.476Z,100131.25
2022-12-24T08:59:23.926Z,100136.00
2022-12-24T09:04:25.273Z,100149.06
2022-12-24T09:09:34.137Z,100143.72
2022-12-24T09:14:39.030Z,100150.03
2022-12-24T09:19:40.874Z,100148.88
2022-12-24T09:24:42.219Z,100154.25
2022-12-24T09:29:43.560Z,100141.31
2022-12-24T09:34:44.908Z,100154.78
2022-12-24T09:39:46.253Z,100164.38
2022-12-24T09:44:58.950Z,100160.75
2022-12-24T09:50:03.669Z,100179.59
2022-12-24T09:55:33.478Z,100188.22
2022-12-24T10:00:38.012Z,100187.81
2022-12-24T10:06:01.143Z,100187.28
2022-12-24T10:11:21.360Z,100199.53
2022-12-24T10:16:34.286Z,100196.06
2022-12-24T10:22:00.919Z,100200.06
2022-12-24T10:27:26.717Z,100193.41
2022-12-24T10:32:37.439Z,100202.38
2022-12-24T10:37:38.858Z,100207.56
2022-12-24T10:42:51.055Z,100209.72
2022-12-24T10:47:57.109Z,100211.41
2022-12-24T10:53:06.771Z,100208.88
2022-12-24T10:58:15.601Z,100212.63
2022-12-24T11:03:30.185Z,100215.22
2022-12-24T11:08:32.274Z,100228.94
2022-12-24T11:13:45.901Z,100218.22
2022-12-24T11:18:52.022Z,100230.16
2022-12-24T11:23:57.285Z,100226.91
2022-12-24T11:29:20.632Z,100217.47
2022-12-24T11:34:28.419Z,100216.69
2022-12-24T11:39:38.401Z,100215.91
2022-12-24T11:44:48.615Z,100223.22
2022-12-24T11:49:49.957Z,100224.97
2022-12-24T11:55:00.708Z,100226.94
2022-12-24T12:00:02.043Z,100221.56
2022-12-24T12:05:11.666Z,100205.63
2022-12-24T12:10:20.611Z,100206.50
2022-12-24T12:15:24.813Z,100200.84
2022-12-24T12:20:40.965Z,100203.63
2022-12-24T12:25:53.271Z,100198.28
2022-12-24T12:31:09.068Z,100202.88
2022-12-24T12:36:18.299Z,100204.97
2022-12-24T12:41:45.809Z,100197.88
2022-12-24T12:46:56.059Z,100210.38
2022-12-24T12:52:20.490Z,100209.72
2022-12-24T12:57:26.379Z,100208.06
2022-12-24T13:02:30.901Z,100211.94
2022-12-24T13:07:55.056Z,100208.16
2022-12-24T13:13:02.446Z,100221.00
2022-12-24T13:18:12.569Z,100224.34
2022-12-24T13:23:18.726Z,100232.63
2022-12-24T13:28:20.391Z,100239.31
2022-12-24T13:33:41.947Z,100243.53
2022-12-24T13:38:53.095Z,100247.06
2022-12-24T13:44:06.656Z,100254.53
2022-12-24T13:49:18.954Z,100246.31
2022-12-24T13:54:25.576Z,100260.19
2022-12-24T13:59:38.879Z,100268.50
2022-12-24T14:04:42.225Z,100261.03
2022-12-24T14:09:51.113Z,100251.28
2022-12-24T14:14:52.484Z,100261.84
2022-12-24T14:20:07.066Z,100259.53
2022-12-24T14:25:27.331Z,100275.47
2022-12-24T14:30:30.461Z,100269.81
2022-12-24T14:35:39.888Z,100288.25
2022-12-24T14:41:04.022Z,100283.63
2022-12-24T14:46:29.598Z,100280.03
2022-12-24T14:52:08.781Z,100283.09
2022-12-24T14:57:23.346Z,100276.84
2022-12-24T15:02:41.971Z,100282.16
2022-12-24T15:07:58.626Z,100296.00
2022-12-24T15:13:07.275Z,100306.34
2022-12-24T15:18:16.849Z,100314.13
2022-12-24T15:23:20.655Z,100317.19
2022-12-24T15:28:23.510Z,100330.50
2022-12-24T15:33:24.834Z,100349.88
2022-12-24T15:38:39.804Z,100354.00
2022-12-24T15:43:41.649Z,100353.34
2022-12-24T15:48:45.104Z,100357.25
2022-12-24T15:53:48.282Z,100353.47
2022-12-24T15:58:49.646Z,100352.41
2022-12-24T16:03:51.017Z,100359.16
2022-12-24T16:08:52.523Z,100355.53
2022-12-24T16:14:10.845Z,100355.66
2022-12-24T16:19:23.661Z,100357.97
2022-12-24T16:24:28.531Z,100360.13
2022-12-24T16:29:29.884Z,100370.44
2022-12-24T16:34:32.560Z,100363.56
2022-12-24T16:39:34.815Z,100356.78
2022-12-24T16:44:36.890Z,100367.97
2022-12-24T16:49:38.965Z,100357.19
2022-12-24T16:54:40.308Z,100370.78
2022-12-24T16:59:42.053Z,100368.78
2022-12-24T17:04:44.083Z,100372.53
2022-12-24T17:09:45.601Z,100379.56
2022-12-24T17:14:47.182Z,100379.66
2022-12-24T17:19:48.491Z,100382.72
2022-12-24T17:24:50.332Z,100382.06
2022-12-24T17:29:51.736Z,100372.56
2022-12-24T17:34:53.377Z,100380.16
2022-12-24T17:39:54.789Z,100396.13
2022-12-24T17:44:56.132Z,100400.69
2022-12-24T17:49:57.645Z,100409.31
2022-12-24T17:54:59.039Z,100417.97
2022-12-24T18:00:00.693Z,100407.13
2022-12-24T18:05:02.035Z,100413.66
2022-12-24T18:10:04.629Z,100420.31
2022-12-24T18:15:06.666Z,100401.38
2022-12-24T18:20:08.965Z,100394.84
2022-12-24T18:25:10.495Z,100393.31
2022-12-24T18:30:12.458Z,100393.69
2022-12-24T18:35:14.449Z,100404.78
2022-12-24T18:40:17.949Z,100400.28
2022-12-24T18:45:19.391Z,100401.81
2022-12-24T18:50:20.755Z,100415.78
2022-12-24T18:55:22.107Z,100424.75
2022-12-24T19:00:23.510Z,100448.13
2022-12-24T19:05:24.893Z,100448.81
2022-12-24T19:10:26.315Z,100458.59
2022-12-24T19:15:33.811Z,100460.38
2022-12-24T19:20:40.638Z,100461.50
2022-12-24T19:25:42.075Z,100470.53
2022-12-24T19:30:43.479Z,100476.41
2022-12-24T19:35:44.801Z,100468.63
2022-12-24T19:40:46.142Z,100470.59
2022-12-24T19:45:47.603Z,100464.63
2022-12-24T19:50:48.997Z,100454.53
2022-12-24T19:55:50.362Z,100456.31
2022-12-24T20:00:52.141Z,100453.28
2022-12-24T20:05:54.528Z,100453.13
2022-12-24T20:10:55.901Z,100457.03
2022-12-24T20:15:57.242Z,100458.19
2022-12-24T20:21:00.019Z,100467.09
2022-12-24T20:26:03.593Z,100459.31
2022-12-24T20:31:16.704Z,100470.25
2022-12-24T20:36:20.630Z,100462.19
2022-12-24T20:41:23.789Z,100458.84
2022-12-24T20:46:25.462Z,100474.16
2022-12-24T20:51:28.533Z,100478.69
2022-12-24T20:56:31.042Z,100475.00
2022-12-24T21:01:34.201Z,100462.38
2022-12-24T21:06:36.297Z,100482.56
2022-12-24T21:11:50.136Z,100493.72
2022-12-24T21:16:53.950Z,100490.88
2022-12-24T21:21:55.446Z,100491.53
2022-12-24T21:26:56.860Z,100492.75
2022-12-24T21:31:58.199Z,100492.19
2022-12-24T21:36:59.570Z,100460.38
2022-12-24T21:42:00.943Z,100466.44
2022-12-24T21:47:03.082Z,100466.56
2022-12-24T21:52:04.557Z,100458.44
2022-12-24T21:57:26.529Z,100451.78
2022-12-24T22:02:28.301Z,100443.63
2022-12-24T22:07:48.494Z,100443.44
2022-12-24T22:12:49.827Z,100455.72
2022-12-24T22:17:51.148Z,100464.94
2022-12-24T22:22:52.503Z,100477.22
2022-12-24T22:27:53.907Z,100486.25
2022-12-24T22:32:55.236Z,100486.56
2022-12-24T22:38:00.153Z,100482.31
2022-12-24T22:43:02.011Z,100485.53
2022-12-24T22:48:03.444Z,100473.28
2022-12-24T22:53:04.834Z,100486.38
2022-12-24T22:58:06.205Z,100495.00
2022-12-24T23:03:08.099Z,100488.59
2022-12-24T23:08:10.683Z,100465.94
2022-12-24T23:13:32.162Z,100481.94
2022-12-24T23:18:33.842Z,100481.34
2022-12-24T23:23:37.266Z,100493.78
2022-12-24T23:28:39.412Z,100483.97
2022-12-24T23:33:41.312Z,100470.69
2022-12-24T23:38:42.736Z,100466.91
2022-12-24T23:43:44.473Z,100490.31
2022-12-24T23:48:46.586Z,100473.19
2022-12-24T23:53:52.999Z,100474.28
2022-12-24T23:58:55.192Z,100479.44
